North Patchogue, New York
Current Conditions -  °F | °C
As of 4:56 AM on Tuesday 27 Jan 2015 (Local Time) from KISP Reporting Station
Heavy Snow Heavy Snow  
Wind Chill:   Ceiling: 500
Heat Index: 20°   Visibility: 0.25mi
Dew Point: 16°   Wind: 31mph
Humidity: 85%   Direction: 360°N
Pressure: 29.54"   Gusts: NA
Location:  40.7718°N, 72.9949°W
Report Text: KISP 270956Z 36027KT 1/4SM R06/2400V3000FT +SN FZFG VV005 M07/M09 A2954 RMK AO2 PK WND 35030/0923 SLP004 SNINCR 1/18 P0004 T10671089 $
Loading
Personal Weather Stations






























Interactive Weather Map New forecast layout! Learn more

10-Day Weather Forecast

Advertisements
Track Severe Weather on mobile